Time,TemperatureF,DewpointF,PressureIn,WindDirection,WindDirectionDegrees,WindSpeedMPH,WindSpeedGustMPH,Humidity,HourlyPrecipIn,Conditions,Clouds,dailyrainin,SoftwareType,DateUTC
2013-01-15 00:01:00,12.0,9.0,-100.00,North,-999,0.0,0.0,86,-99.99,,,-99.99,,2013-01-15 08:01:00,
2013-01-15 00:12:00,12.0,9.0,-100.00,East,90,1.0,1.0,86,-99.99,,,-99.99,,2013-01-15 08:12:00,
2013-01-15 00:22:00,12.0,9.0,-100.00,East,90,1.0,1.0,86,-99.99,,,-99.99,,2013-01-15 08:22:00,
2013-01-15 00:32:00,13.0,10.0,-100.00,NE,45,1.0,1.0,87,-99.99,,,-99.99,,2013-01-15 08:32:00,
2013-01-15 00:42:00,12.0,9.0,-100.00,East,90,0.0,1.0,87,-99.99,,,-99.99,,2013-01-15 08:42:00,
2013-01-15 00:53:00,12.0,9.0,-100.00,East,90,0.0,1.0,87,-99.99,,,-99.99,,2013-01-15 08:53:00,
2013-01-15 01:02:00,11.0,8.0,-100.00,East,90,2.0,3.0,88,-99.99,,,-99.99,,2013-01-15 09:02:00,
2013-01-15 01:11:00,11.0,8.0,-100.00,NE,45,1.0,1.0,89,-99.99,,,-99.99,,2013-01-15 09:11:00,
2013-01-15 01:22:00,11.0,8.0,-100.00,NE,45,1.0,1.0,89,-99.99,,,-99.99,,2013-01-15 09:22:00,
2013-01-15 01:33:00,10.0,7.0,-100.00,East,90,2.0,2.0,90,-99.99,,,-99.99,,2013-01-15 09:33:00,
2013-01-15 01:42:00,10.0,8.0,-100.00,East,90,1.0,2.0,91,-99.99,,,-99.99,,2013-01-15 09:42:00,
2013-01-15 01:52:00,10.0,8.0,-100.00,East,90,1.0,2.0,91,-99.99,,,-99.99,,2013-01-15 09:52:00,
2013-01-15 02:02:00,9.0,7.0,-100.00,East,90,1.0,1.0,91,-99.99,,,-99.99,,2013-01-15 10:02:00,
2013-01-15 02:11:00,9.0,7.0,-100.00,East,90,2.0,2.0,91,-99.99,,,-99.99,,2013-01-15 10:11:00,
2013-01-15 02:22:00,9.0,7.0,-100.00,East,90,2.0,2.0,91,-99.99,,,-99.99,,2013-01-15 10:22:00,
2013-01-15 02:32:00,8.0,5.0,-100.00,SE,135,3.0,4.0,90,-99.99,,,-99.99,,2013-01-15 10:32:00,
2013-01-15 02:42:00,9.0,6.0,-100.00,East,90,3.0,3.0,90,-99.99,,,-99.99,,2013-01-15 10:42:00,
2013-01-15 02:52:00,9.0,6.0,-100.00,East,90,3.0,3.0,90,-99.99,,,-99.99,,2013-01-15 10:52:00,
2013-01-15 03:02:00,9.0,7.0,-100.00,North,-999,0.0,0.0,90,-99.99,,,-99.99,,2013-01-15 11:02:00,
2013-01-15 03:12:00,9.0,7.0,-100.00,North,-999,0.0,0.0,90,-99.99,,,-99.99,,2013-01-15 11:12:00,
2013-01-15 03:22:00,9.0,7.0,-100.00,North,-999,0.0,0.0,90,-99.99,,,-99.99,,2013-01-15 11:22:00,
2013-01-15 03:32:00,9.0,6.0,-100.00,East,90,2.0,2.0,90,-99.99,,,-99.99,,2013-01-15 11:32:00,
2013-01-15 03:42:00,9.0,6.0,-100.00,NE,45,1.0,1.0,90,-99.99,,,-99.99,,2013-01-15 11:42:00,
2013-01-15 03:53:00,9.0,6.0,-100.00,NE,45,1.0,1.0,90,-99.99,,,-99.99,,2013-01-15 11:53:00,
2013-01-15 04:02:00,9.0,6.0,-100.00,East,90,1.0,1.0,90,-99.99,,,-99.99,,2013-01-15 12:02:00,
2013-01-15 04:12:00,8.0,6.0,-100.00,East,90,1.0,2.0,90,-99.99,,,-99.99,,2013-01-15 12:12:00,
2013-01-15 04:22:00,8.0,6.0,-100.00,East,90,1.0,2.0,90,-99.99,,,-99.99,,2013-01-15 12:22:00,
2013-01-15 04:32:00,8.0,5.0,-100.00,East,90,2.0,3.0,90,-99.99,,,-99.99,,2013-01-15 12:32:00,
2013-01-15 04:42:00,8.0,6.0,-100.00,East,90,0.0,1.0,91,-99.99,,,-99.99,,2013-01-15 12:42:00,
2013-01-15 04:53:00,8.0,6.0,-100.00,East,90,0.0,1.0,91,-99.99,,,-99.99,,2013-01-15 12:53:00,
2013-01-15 05:02:00,8.0,6.0,-100.00,East,90,0.0,1.0,91,-99.99,,,-99.99,,2013-01-15 13:02:00,
2013-01-15 05:12:00,9.0,6.0,-100.00,East,90,1.0,1.0,91,-99.99,,,-99.99,,2013-01-15 13:12:00,
2013-01-15 05:23:00,9.0,6.0,-100.00,East,90,1.0,1.0,91,-99.99,,,-99.99,,2013-01-15 13:23:00,
2013-01-15 05:32:00,8.0,6.0,-100.00,North,-999,0.0,0.0,92,-99.99,,,-99.99,,2013-01-15 13:32:00,
2013-01-15 05:42:00,8.0,6.0,-100.00,East,90,1.0,1.0,92,-99.99,,,-99.99,,2013-01-15 13:42:00,
2013-01-15 05:53:00,8.0,6.0,-100.00,East,90,1.0,1.0,92,-99.99,,,-99.99,,2013-01-15 13:53:00,
2013-01-15 06:02:00,9.0,7.0,-100.00,East,90,1.0,2.0,92,-99.99,,,-99.99,,2013-01-15 14:02:00,
2013-01-15 06:12:00,8.0,6.0,-100.00,SE,135,2.0,2.0,92,-99.99,,,-99.99,,2013-01-15 14:12:00,
2013-01-15 06:23:00,8.0,6.0,-100.00,SE,135,2.0,2.0,92,-99.99,,,-99.99,,2013-01-15 14:23:00,
2013-01-15 06:32:00,9.0,7.0,-100.00,East,90,1.0,1.0,92,-99.99,,,-99.99,,2013-01-15 14:32:00,
2013-01-15 06:42:00,9.0,7.0,-100.00,East,90,1.0,1.0,92,-99.99,,,-99.99,,2013-01-15 14:42:00,
2013-01-15 06:53:00,9.0,7.0,-100.00,East,90,1.0,1.0,92,-99.99,,,-99.99,,2013-01-15 14:53:00,
2013-01-15 07:02:00,8.0,6.0,-100.00,North,-999,0.0,0.0,92,-99.99,,,-99.99,,2013-01-15 15:02:00,
2013-01-15 07:12:00,9.0,7.0,-100.00,East,90,1.0,2.0,92,-99.99,,,-99.99,,2013-01-15 15:12:00,
2013-01-15 07:23:00,9.0,7.0,-100.00,East,90,1.0,2.0,92,-99.99,,,-99.99,,2013-01-15 15:23:00,
2013-01-15 07:33:00,9.0,7.0,-100.00,North,-999,0.0,0.0,92,-99.99,,,-99.99,,2013-01-15 15:33:00,
2013-01-15 07:43:00,9.0,7.0,-100.00,North,-999,0.0,0.0,92,-99.99,,,-99.99,,2013-01-15 15:43:00,
2013-01-15 07:53:00,9.0,7.0,-100.00,North,-999,0.0,0.0,92,-99.99,,,-99.99,,2013-01-15 15:53:00,
2013-01-15 08:02:00,9.0,7.0,-100.00,North,-999,0.0,0.0,92,-99.99,,,-99.99,,2013-01-15 16:02:00,
2013-01-15 08:12:00,8.0,6.0,-100.00,East,90,3.0,3.0,92,-99.99,,,-99.99,,2013-01-15 16:12:00,
2013-01-15 08:22:00,8.0,6.0,-100.00,East,90,3.0,3.0,92,-99.99,,,-99.99,,2013-01-15 16:22:00,
2013-01-15 08:33:00,8.0,6.0,-100.00,East,90,3.0,3.0,91,-99.99,,,-99.99,,2013-01-15 16:33:00,
2013-01-15 08:42:00,9.0,7.0,-100.00,East,90,2.0,3.0,91,-99.99,,,-99.99,,2013-01-15 16:42:00,
2013-01-15 08:53:00,9.0,7.0,-100.00,East,90,2.0,3.0,91,-99.99,,,-99.99,,2013-01-15 16:53:00,
2013-01-15 09:03:00,9.0,7.0,-100.00,East,90,2.0,3.0,91,-99.99,,,-99.99,,2013-01-15 17:03:00,
2013-01-15 09:12:00,11.0,9.0,-100.00,East,90,2.0,3.0,91,-99.99,,,-99.99,,2013-01-15 17:12:00,
2013-01-15 09:22:00,11.0,9.0,-100.00,East,90,2.0,3.0,91,-99.99,,,-99.99,,2013-01-15 17:22:00,
2013-01-15 09:33:00,14.0,11.0,-100.00,East,90,1.0,1.0,88,-99.99,,,-99.99,,2013-01-15 17:33:00,
2013-01-15 09:42:00,16.0,12.0,-100.00,West,270,1.0,1.0,85,-99.99,,,-99.99,,2013-01-15 17:42:00,
2013-01-15 09:53:00,16.0,12.0,-100.00,West,270,1.0,1.0,85,-99.99,,,-99.99,,2013-01-15 17:53:00,
2013-01-15 10:12:00,18.0,11.0,-100.00,West,270,1.0,1.0,74,-99.99,,,-99.99,,2013-01-15 18:12:00,
2013-01-15 10:33:00,18.0,11.0,-100.00,North,-999,0.0,0.0,73,-99.99,,,-99.99,,2013-01-15 18:33:00,
2013-01-15 10:42:00,20.0,12.0,-100.00,SW,225,2.0,2.0,69,-99.99,,,-99.99,,2013-01-15 18:42:00,
2013-01-15 10:53:00,20.0,12.0,-100.00,SW,225,2.0,2.0,69,-99.99,,,-99.99,,2013-01-15 18:53:00,
2013-01-15 11:03:00,21.0,11.0,-100.00,West,270,3.0,3.0,66,-99.99,,,-99.99,,2013-01-15 19:03:00,
2013-01-15 11:12:00,22.0,12.0,-100.00,West,270,2.0,3.0,66,-99.99,,,-99.99,,2013-01-15 19:12:00,
2013-01-15 11:22:00,22.0,12.0,-100.00,West,270,2.0,3.0,66,-99.99,,,-99.99,,2013-01-15 19:22:00,
2013-01-15 11:33:00,23.0,12.0,-100.00,West,270,3.0,3.0,63,-99.99,,,-99.99,,2013-01-15 19:33:00,
2013-01-15 11:42:00,23.0,11.0,-100.00,West,270,3.0,4.0,62,-99.99,,,-99.99,,2013-01-15 19:42:00,
2013-01-15 11:53:00,23.0,11.0,-100.00,West,270,3.0,4.0,62,-99.99,,,-99.99,,2013-01-15 19:53:00,
2013-01-15 12:02:00,23.0,11.0,-100.00,West,270,3.0,4.0,62,-99.99,,,-99.99,,2013-01-15 20:02:00,
2013-01-15 12:12:00,25.0,12.0,-100.00,West,270,1.0,1.0,57,-99.99,,,-99.99,,2013-01-15 20:12:00,
2013-01-15 12:23:00,25.0,12.0,-100.00,West,270,1.0,1.0,57,-99.99,,,-99.99,,2013-01-15 20:23:00,
2013-01-15 12:33:00,26.0,11.0,-100.00,West,270,4.0,5.0,52,-99.99,,,-99.99,,2013-01-15 20:33:00,
2013-01-15 12:41:00,27.0,11.0,-100.00,West,270,4.0,4.0,50,-99.99,,,-99.99,,2013-01-15 20:41:00,
2013-01-15 12:43:00,26.0,11.0,-100.00,West,270,3.0,4.0,53,-99.99,,,-99.99,,2013-01-15 20:43:00,
2013-01-15 12:53:00,26.0,11.0,-100.00,West,270,3.0,4.0,53,-99.99,,,-99.99,,2013-01-15 20:53:00,
2013-01-15 13:02:00,27.0,11.0,-100.00,West,270,3.0,3.0,51,-99.99,,,-99.99,,2013-01-15 21:02:00,
2013-01-15 13:12:00,27.0,11.0,-100.00,West,270,4.0,4.0,50,-99.99,,,-99.99,,2013-01-15 21:12:00,
2013-01-15 13:22:00,27.0,11.0,-100.00,West,270,4.0,4.0,50,-99.99,,,-99.99,,2013-01-15 21:22:00,
2013-01-15 13:33:00,27.0,11.0,-100.00,West,270,4.0,4.0,50,-99.99,,,-99.99,,2013-01-15 21:33:00,
2013-01-15 14:02:00,30.0,12.0,-100.00,West,270,3.0,4.0,46,-99.99,,,-99.99,,2013-01-15 22:02:00,
2013-01-15 14:12:00,31.0,12.0,-100.00,West,270,3.0,3.0,45,-99.99,,,-99.99,,2013-01-15 22:12:00,
2013-01-15 14:22:00,31.0,12.0,-100.00,West,270,3.0,3.0,45,-99.99,,,-99.99,,2013-01-15 22:22:00,
2013-01-15 14:32:00,31.0,12.0,-100.00,West,270,4.0,4.0,44,-99.99,,,-99.99,,2013-01-15 22:32:00,
2013-01-15 14:42:00,31.0,11.0,-100.00,West,270,3.0,3.0,43,-99.99,,,-99.99,,2013-01-15 22:42:00,
2013-01-15 14:53:00,31.0,11.0,-100.00,West,270,3.0,3.0,43,-99.99,,,-99.99,,2013-01-15 22:53:00,
2013-01-15 15:02:00,32.0,12.0,-100.00,West,270,3.0,4.0,43,-99.99,,,-99.99,,2013-01-15 23:02:00,
2013-01-15 15:12:00,32.0,12.0,-100.00,SW,225,3.0,3.0,43,-99.99,,,-99.99,,2013-01-15 23:12:00,
2013-01-15 15:22:00,32.0,12.0,-100.00,SW,225,3.0,3.0,43,-99.99,,,-99.99,,2013-01-15 23:22:00,
2013-01-15 15:32:00,33.0,13.0,-100.00,West,270,3.0,4.0,43,-99.99,,,-99.99,,2013-01-15 23:32:00,
2013-01-15 15:42:00,33.0,13.0,-100.00,West,270,1.0,1.0,43,-99.99,,,-99.99,,2013-01-15 23:42:00,
2013-01-15 15:53:00,33.0,13.0,-100.00,West,270,1.0,1.0,43,-99.99,,,-99.99,,2013-01-15 23:53:00,
2013-01-15 16:02:00,31.0,11.0,-100.00,SE,135,1.0,2.0,42,-99.99,,,-99.99,,2013-01-16 00:02:00,
2013-01-15 16:12:00,31.0,10.0,-100.00,SE,135,3.0,3.0,41,-99.99,,,-99.99,,2013-01-16 00:12:00,
2013-01-15 16:22:00,31.0,10.0,-100.00,SE,135,3.0,3.0,41,-99.99,,,-99.99,,2013-01-16 00:22:00,
2013-01-15 16:32:00,30.0,10.0,-100.00,East,90,3.0,4.0,42,-99.99,,,-99.99,,2013-01-16 00:32:00,
2013-01-15 16:42:00,28.0,9.0,-100.00,SE,135,4.0,6.0,43,-99.99,,,-99.99,,2013-01-16 00:42:00,
2013-01-15 16:53:00,28.0,9.0,-100.00,SE,135,4.0,6.0,43,-99.99,,,-99.99,,2013-01-16 00:53:00,
2013-01-15 17:02:00,27.0,8.0,-100.00,East,90,3.0,3.0,45,-99.99,,,-99.99,,2013-01-16 01:02:00,
2013-01-15 17:12:00,26.0,8.0,-100.00,North,-999,0.0,0.0,46,-99.99,,,-99.99,,2013-01-16 01:12:00,
2013-01-15 17:22:00,26.0,8.0,-100.00,North,-999,0.0,0.0,46,-99.99,,,-99.99,,2013-01-16 01:22:00,
2013-01-15 17:32:00,25.0,9.0,-100.00,East,90,2.0,3.0,50,-99.99,,,-99.99,,2013-01-16 01:32:00,
2013-01-15 17:42:00,25.0,10.0,-100.00,East,90,4.0,5.0,52,-99.99,,,-99.99,,2013-01-16 01:42:00,
2013-01-15 17:53:00,25.0,10.0,-100.00,East,90,4.0,5.0,52,-99.99,,,-99.99,,2013-01-16 01:53:00,
2013-01-15 18:02:00,24.0,10.0,-100.00,East,90,2.0,3.0,54,-99.99,,,-99.99,,2013-01-16 02:02:00,
2013-01-15 18:12:00,23.0,10.0,-100.00,SE,135,0.0,1.0,56,-99.99,,,-99.99,,2013-01-16 02:12:00,
2013-01-15 18:22:00,23.0,10.0,-100.00,SE,135,0.0,1.0,56,-99.99,,,-99.99,,2013-01-16 02:22:00,
2013-01-15 18:32:00,22.0,10.0,-100.00,East,90,1.0,1.0,60,-99.99,,,-99.99,,2013-01-16 02:32:00,
2013-01-15 18:42:00,23.0,12.0,-100.00,NW,315,2.0,4.0,61,-99.99,,,-99.99,,2013-01-16 02:42:00,
2013-01-15 18:53:00,23.0,12.0,-100.00,NW,315,2.0,4.0,61,-99.99,,,-99.99,,2013-01-16 02:53:00,
2013-01-15 19:02:00,23.0,12.0,-100.00,North,0,2.0,3.0,64,-99.99,,,-99.99,,2013-01-16 03:02:00,
2013-01-15 19:11:00,24.0,13.0,-100.00,East,90,3.0,4.0,62,-99.99,,,-99.99,,2013-01-16 03:11:00,
2013-01-15 19:22:00,24.0,13.0,-100.00,East,90,3.0,4.0,62,-99.99,,,-99.99,,2013-01-16 03:22:00,
2013-01-15 19:32:00,22.0,11.0,-100.00,NW,315,3.0,4.0,62,-99.99,,,-99.99,,2013-01-16 03:32:00,
2013-01-15 19:42:00,23.0,12.0,-100.00,NW,315,3.0,4.0,62,-99.99,,,-99.99,,2013-01-16 03:42:00,
2013-01-15 19:53:00,32.0,17.0,-100.00,NW,315,1.0,3.0,53,-99.99,,,-99.99,,2013-01-16 03:53:00,
2013-01-15 20:02:00,32.0,17.0,-100.00,NW,315,1.0,3.0,53,-99.99,,,-99.99,,2013-01-16 04:02:00,
2013-01-15 20:12:00,31.0,16.0,-100.00,West,270,1.0,2.0,53,-99.99,,,-99.99,,2013-01-16 04:12:00,
2013-01-15 20:22:00,31.0,16.0,-100.00,West,270,1.0,2.0,53,-99.99,,,-99.99,,2013-01-16 04:22:00,
2013-01-15 20:32:00,31.0,16.0,-100.00,North,0,2.0,3.0,54,-99.99,,,-99.99,,2013-01-16 04:32:00,
2013-01-15 20:42:00,30.0,16.0,-100.00,SW,225,1.0,1.0,55,-99.99,,,-99.99,,2013-01-16 04:42:00,
2013-01-15 20:52:00,30.0,16.0,-100.00,SW,225,1.0,1.0,55,-99.99,,,-99.99,,2013-01-16 04:52:00,
2013-01-15 21:03:00,25.0,11.0,-100.00,East,90,4.0,4.0,57,-99.99,,,-99.99,,2013-01-16 05:03:00,
2013-01-15 21:12:00,24.0,11.0,-100.00,East,90,1.0,2.0,58,-99.99,,,-99.99,,2013-01-16 05:12:00,
2013-01-15 21:22:00,24.0,11.0,-100.00,East,90,1.0,2.0,58,-99.99,,,-99.99,,2013-01-16 05:22:00,
2013-01-15 21:32:00,24.0,11.0,-100.00,East,90,1.0,2.0,58,-99.99,,,-99.99,,2013-01-16 05:32:00,
2013-01-15 21:42:00,20.0,10.0,-100.00,East,90,4.0,6.0,64,-99.99,,,-99.99,,2013-01-16 05:42:00,
2013-01-15 21:53:00,20.0,10.0,-100.00,East,90,4.0,6.0,64,-99.99,,,-99.99,,2013-01-16 05:53:00,
2013-01-15 22:02:00,20.0,11.0,-100.00,East,90,3.0,3.0,67,-99.99,,,-99.99,,2013-01-16 06:02:00,
2013-01-15 22:11:00,20.0,11.0,-100.00,East,90,3.0,3.0,69,-99.99,,,-99.99,,2013-01-16 06:11:00,
2013-01-15 22:22:00,20.0,11.0,-100.00,East,90,3.0,3.0,69,-99.99,,,-99.99,,2013-01-16 06:22:00,
2013-01-15 22:32:00,19.0,13.0,-100.00,East,90,4.0,4.0,75,-99.99,,,-99.99,,2013-01-16 06:32:00,
2013-01-15 22:42:00,19.0,13.0,-100.00,East,90,3.0,3.0,75,-99.99,,,-99.99,,2013-01-16 06:42:00,
2013-01-15 22:53:00,19.0,13.0,-100.00,East,90,3.0,3.0,75,-99.99,,,-99.99,,2013-01-16 06:53:00,
2013-01-15 23:02:00,19.0,13.0,-100.00,East,90,3.0,4.0,77,-99.99,,,-99.99,,2013-01-16 07:02:00,
2013-01-15 23:11:00,18.0,12.0,-100.00,East,90,3.0,4.0,78,-99.99,,,-99.99,,2013-01-16 07:11:00,
2013-01-15 23:22:00,18.0,12.0,-100.00,East,90,3.0,4.0,78,-99.99,,,-99.99,,2013-01-16 07:22:00,
2013-01-15 23:32:00,20.0,14.0,-100.00,East,90,3.0,3.0,78,-99.99,,,-99.99,,2013-01-16 07:32:00,
2013-01-15 23:42:00,19.0,13.0,-100.00,East,90,2.0,3.0,78,-99.99,,,-99.99,,2013-01-16 07:42:00,
2013-01-15 23:52:00,19.0,13.0,-100.00,East,90,2.0,3.0,78,-99.99,,,-99.99,,2013-01-16 07:52:00,